sensor_id;sensor_type;location;lat;lon;timestamp;P1;durP1;ratioP1;P2;durP2;ratioP2
10479;SDS011;12789;42.610;23.040;2022-09-09T00:00:54;12.73;;;9.73;;
10479;SDS011;12789;42.610;23.040;2022-09-09T00:03:27;12.30;;;10.25;;
10479;SDS011;12789;42.610;23.040;2022-09-09T00:06:06;11.18;;;9.98;;
10479;SDS011;12789;42.610;23.040;2022-09-09T00:08:45;11.23;;;9.40;;
10479;SDS011;12789;42.610;23.040;2022-09-09T00:11:26;12.73;;;10.40;;
10479;SDS011;12789;42.610;23.040;2022-09-09T00:13:56;17.35;;;9.70;;
10479;SDS011;12789;42.610;23.040;2022-09-09T00:16:29;13.73;;;10.23;;
10479;SDS011;12789;42.610;23.040;2022-09-09T00:19:02;13.05;;;10.05;;
10479;SDS011;12789;42.610;23.040;2022-09-09T00:21:35;16.55;;;11.43;;
10479;SDS011;12789;42.610;23.040;2022-09-09T00:24:08;15.23;;;10.65;;
10479;SDS011;12789;42.610;23.040;2022-09-09T00:26:45;13.20;;;10.18;;
10479;SDS011;12789;42.610;23.040;2022-09-09T00:29:21;13.48;;;10.63;;
10479;SDS011;12789;42.610;23.040;2022-09-09T00:31:55;13.10;;;10.77;;
10479;SDS011;12789;42.610;23.040;2022-09-09T00:34:28;15.77;;;11.23;;
10479;SDS011;12789;42.610;23.040;2022-09-09T00:36:59;14.35;;;10.90;;
10479;SDS011;12789;42.610;23.040;2022-09-09T00:39:27;13.88;;;11.20;;
10479;SDS011;12789;42.610;23.040;2022-09-09T00:42:03;17.80;;;11.05;;
10479;SDS011;12789;42.610;23.040;2022-09-09T00:44:43;11.55;;;10.45;;
10479;SDS011;12789;42.610;23.040;2022-09-09T00:47:22;14.50;;;11.07;;
10479;SDS011;12789;42.610;23.040;2022-09-09T00:50:03;17.15;;;10.82;;
10479;SDS011;12789;42.610;23.040;2022-09-09T00:52:44;13.70;;;10.95;;
10479;SDS011;12789;42.610;23.040;2022-09-09T00:55:21;15.00;;;10.40;;
10479;SDS011;12789;42.610;23.040;2022-09-09T00:57:54;15.95;;;10.95;;
10479;SDS011;12789;42.610;23.040;2022-09-09T01:00:22;12.35;;;11.00;;
10479;SDS011;12789;42.610;23.040;2022-09-09T01:02:53;15.05;;;10.68;;
10479;SDS011;12789;42.610;23.040;2022-09-09T01:05:30;15.98;;;11.40;;
10479;SDS011;12789;42.610;23.040;2022-09-09T01:08:09;12.23;;;10.70;;
10479;SDS011;12789;42.610;23.040;2022-09-09T01:10:48;12.43;;;10.60;;
10479;SDS011;12789;42.610;23.040;2022-09-09T01:13:20;11.45;;;10.07;;
10479;SDS011;12789;42.610;23.040;2022-09-09T01:15:50;15.25;;;11.27;;
10479;SDS011;12789;42.610;23.040;2022-09-09T01:18:20;16.58;;;11.43;;
10479;SDS011;12789;42.610;23.040;2022-09-09T01:20:53;14.93;;;11.60;;
10479;SDS011;12789;42.610;23.040;2022-09-09T01:23:33;15.75;;;11.77;;
10479;SDS011;12789;42.610;23.040;2022-09-09T01:26:13;15.88;;;11.07;;
10479;SDS011;12789;42.610;23.040;2022-09-09T01:28:45;14.02;;;11.05;;
10479;SDS011;12789;42.610;23.040;2022-09-09T01:31:17;13.07;;;11.57;;
10479;SDS011;12789;42.610;23.040;2022-09-09T01:33:47;12.07;;;10.93;;
10479;SDS011;12789;42.610;23.040;2022-09-09T01:36:15;12.90;;;10.77;;
10479;SDS011;12789;42.610;23.040;2022-09-09T01:38:47;14.32;;;11.48;;
10479;SDS011;12789;42.610;23.040;2022-09-09T01:41:16;18.33;;;11.73;;
10479;SDS011;12789;42.610;23.040;2022-09-09T01:43:43;14.23;;;11.38;;
10479;SDS011;12789;42.610;23.040;2022-09-09T01:46:11;15.82;;;11.75;;
10479;SDS011;12789;42.610;23.040;2022-09-09T01:48:40;14.90;;;11.68;;
10479;SDS011;12789;42.610;23.040;2022-09-09T01:51:08;15.57;;;12.30;;
10479;SDS011;12789;42.610;23.040;2022-09-09T01:53:37;13.48;;;11.57;;
10479;SDS011;12789;42.610;23.040;2022-09-09T01:56:08;16.95;;;11.98;;
10479;SDS011;12789;42.610;23.040;2022-09-09T01:58:59;18.55;;;12.35;;
10479;SDS011;12789;42.610;23.040;2022-09-09T02:01:54;17.92;;;12.35;;
10479;SDS011;12789;42.610;23.040;2022-09-09T02:04:34;14.85;;;12.57;;
10479;SDS011;12789;42.610;23.040;2022-09-09T02:07:06;16.95;;;13.07;;
10479;SDS011;12789;42.610;23.040;2022-09-09T02:09:47;16.25;;;12.32;;
10479;SDS011;12789;42.610;23.040;2022-09-09T02:12:18;14.93;;;12.70;;
10479;SDS011;12789;42.610;23.040;2022-09-09T02:14:50;14.75;;;12.30;;
10479;SDS011;12789;42.610;23.040;2022-09-09T02:17:23;14.50;;;12.23;;
10479;SDS011;12789;42.610;23.040;2022-09-09T02:19:56;13.00;;;11.80;;
10479;SDS011;12789;42.610;23.040;2022-09-09T02:22:28;15.48;;;11.48;;
10479;SDS011;12789;42.610;23.040;2022-09-09T02:25:03;15.52;;;12.40;;
10479;SDS011;12789;42.610;23.040;2022-09-09T02:27:33;13.93;;;12.52;;
10479;SDS011;12789;42.610;23.040;2022-09-09T02:30:03;16.63;;;13.30;;
10479;SDS011;12789;42.610;23.040;2022-09-09T02:32:33;14.00;;;12.48;;
10479;SDS011;12789;42.610;23.040;2022-09-09T02:35:02;18.90;;;12.63;;
10479;SDS011;12789;42.610;23.040;2022-09-09T02:37:37;14.52;;;12.55;;
10479;SDS011;12789;42.610;23.040;2022-09-09T02:40:07;13.75;;;11.88;;
10479;SDS011;12789;42.610;23.040;2022-09-09T02:42:38;13.63;;;12.13;;
10479;SDS011;12789;42.610;23.040;2022-09-09T02:45:08;13.70;;;11.10;;
10479;SDS011;12789;42.610;23.040;2022-09-09T02:47:37;15.18;;;11.80;;
10479;SDS011;12789;42.610;23.040;2022-09-09T02:50:12;16.13;;;12.30;;
10479;SDS011;12789;42.610;23.040;2022-09-09T02:52:51;15.25;;;12.15;;
10479;SDS011;12789;42.610;23.040;2022-09-09T02:55:29;19.10;;;12.20;;
10479;SDS011;12789;42.610;23.040;2022-09-09T02:58:04;13.50;;;12.13;;
10479;SDS011;12789;42.610;23.040;2022-09-09T03:00:38;13.52;;;11.63;;
10479;SDS011;12789;42.610;23.040;2022-09-09T03:03:06;13.38;;;11.00;;
10479;SDS011;12789;42.610;23.040;2022-09-09T03:05:34;14.88;;;11.50;;
10479;SDS011;12789;42.610;23.040;2022-09-09T03:08:02;15.70;;;12.15;;
10479;SDS011;12789;42.610;23.040;2022-09-09T03:10:30;13.57;;;12.07;;
10479;SDS011;12789;42.610;23.040;2022-09-09T03:12:57;16.80;;;11.80;;
10479;SDS011;12789;42.610;23.040;2022-09-09T03:15:24;13.73;;;12.13;;
10479;SDS011;12789;42.610;23.040;2022-09-09T03:17:55;14.40;;;11.13;;
10479;SDS011;12789;42.610;23.040;2022-09-09T03:20:23;13.38;;;11.93;;
10479;SDS011;12789;42.610;23.040;2022-09-09T03:22:51;14.63;;;12.38;;
10479;SDS011;12789;42.610;23.040;2022-09-09T03:25:18;13.55;;;12.15;;
10479;SDS011;12789;42.610;23.040;2022-09-09T03:27:45;16.00;;;12.38;;
10479;SDS011;12789;42.610;23.040;2022-09-09T03:30:12;14.10;;;11.60;;
10479;SDS011;12789;42.610;23.040;2022-09-09T03:32:40;14.70;;;11.50;;
10479;SDS011;12789;42.610;23.040;2022-09-09T03:35:08;13.60;;;11.63;;
10479;SDS011;12789;42.610;23.040;2022-09-09T03:37:35;15.13;;;11.23;;
10479;SDS011;12789;42.610;23.040;2022-09-09T03:40:04;15.40;;;12.07;;
10479;SDS011;12789;42.610;23.040;2022-09-09T03:42:31;13.35;;;11.20;;
10479;SDS011;12789;42.610;23.040;2022-09-09T03:44:58;15.35;;;12.82;;
10479;SDS011;12789;42.610;23.040;2022-09-09T03:47:26;18.67;;;11.57;;
10479;SDS011;12789;42.610;23.040;2022-09-09T03:49:54;13.93;;;11.48;;
10479;SDS011;12789;42.610;23.040;2022-09-09T03:52:22;14.50;;;11.40;;
10479;SDS011;12789;42.610;23.040;2022-09-09T03:54:51;14.02;;;12.07;;
10479;SDS011;12789;42.610;23.040;2022-09-09T03:57:18;22.15;;;12.73;;
10479;SDS011;12789;42.610;23.040;2022-09-09T03:59:45;19.40;;;12.80;;
10479;SDS011;12789;42.610;23.040;2022-09-09T04:02:12;17.38;;;12.38;;
10479;SDS011;12789;42.610;23.040;2022-09-09T04:04:39;16.23;;;13.55;;
10479;SDS011;12789;42.610;23.040;2022-09-09T04:07:06;15.82;;;12.55;;
10479;SDS011;12789;42.610;23.040;2022-09-09T04:09:34;20.90;;;12.73;;
10479;SDS011;12789;42.610;23.040;2022-09-09T04:12:01;19.27;;;12.50;;
10479;SDS011;12789;42.610;23.040;2022-09-09T04:14:29;17.13;;;13.32;;
10479;SDS011;12789;42.610;23.040;2022-09-09T04:16:56;19.25;;;13.85;;
10479;SDS011;12789;42.610;23.040;2022-09-09T04:19:24;20.83;;;13.48;;
10479;SDS011;12789;42.610;23.040;2022-09-09T04:21:51;22.77;;;13.88;;
10479;SDS011;12789;42.610;23.040;2022-09-09T04:24:18;18.40;;;13.15;;
10479;SDS011;12789;42.610;23.040;2022-09-09T04:26:48;16.20;;;13.20;;
10479;SDS011;12789;42.610;23.040;2022-09-09T04:29:15;14.88;;;11.90;;
10479;SDS011;12789;42.610;23.040;2022-09-09T04:31:42;17.08;;;13.05;;
10479;SDS011;12789;42.610;23.040;2022-09-09T04:34:10;19.50;;;12.27;;
10479;SDS011;12789;42.610;23.040;2022-09-09T04:36:37;17.40;;;12.13;;
10479;SDS011;12789;42.610;23.040;2022-09-09T04:39:05;21.70;;;13.00;;
10479;SDS011;12789;42.610;23.040;2022-09-09T04:41:32;15.70;;;12.80;;
10479;SDS011;12789;42.610;23.040;2022-09-09T04:44:01;18.45;;;12.07;;
10479;SDS011;12789;42.610;23.040;2022-09-09T04:46:28;14.90;;;11.52;;
10479;SDS011;12789;42.610;23.040;2022-09-09T04:48:57;12.85;;;11.52;;
10479;SDS011;12789;42.610;23.040;2022-09-09T04:51:24;15.60;;;11.52;;
10479;SDS011;12789;42.610;23.040;2022-09-09T04:53:51;25.77;;;12.25;;
10479;SDS011;12789;42.610;23.040;2022-09-09T04:56:19;22.35;;;11.88;;
10479;SDS011;12789;42.610;23.040;2022-09-09T04:58:46;15.88;;;11.70;;
10479;SDS011;12789;42.610;23.040;2022-09-09T05:01:15;17.38;;;12.32;;
10479;SDS011;12789;42.610;23.040;2022-09-09T05:03:43;19.23;;;11.85;;
10479;SDS011;12789;42.610;23.040;2022-09-09T05:06:12;17.40;;;12.02;;
10479;SDS011;12789;42.610;23.040;2022-09-09T05:08:41;16.13;;;12.25;;
10479;SDS011;12789;42.610;23.040;2022-09-09T05:11:15;17.10;;;12.52;;
10479;SDS011;12789;42.610;23.040;2022-09-09T05:13:44;14.02;;;11.77;;
10479;SDS011;12789;42.610;23.040;2022-09-09T05:16:11;14.82;;;12.35;;
10479;SDS011;12789;42.610;23.040;2022-09-09T05:18:41;18.13;;;13.23;;
10479;SDS011;12789;42.610;23.040;2022-09-09T05:21:09;20.20;;;13.57;;
10479;SDS011;12789;42.610;23.040;2022-09-09T05:23:36;17.58;;;12.90;;
10479;SDS011;12789;42.610;23.040;2022-09-09T05:26:04;21.20;;;13.10;;
10479;SDS011;12789;42.610;23.040;2022-09-09T05:28:33;18.23;;;12.55;;
10479;SDS011;12789;42.610;23.040;2022-09-09T05:31:02;20.17;;;12.75;;
10479;SDS011;12789;42.610;23.040;2022-09-09T05:33:34;22.33;;;14.10;;
10479;SDS011;12789;42.610;23.040;2022-09-09T05:36:05;18.27;;;13.48;;
10479;SDS011;12789;42.610;23.040;2022-09-09T05:38:33;21.58;;;14.57;;
10479;SDS011;12789;42.610;23.040;2022-09-09T05:41:02;21.15;;;15.15;;
10479;SDS011;12789;42.610;23.040;2022-09-09T05:43:29;17.63;;;12.55;;
10479;SDS011;12789;42.610;23.040;2022-09-09T05:46:01;25.02;;;12.82;;
10479;SDS011;12789;42.610;23.040;2022-09-09T05:48:29;15.40;;;10.70;;
10479;SDS011;12789;42.610;23.040;2022-09-09T05:50:57;25.02;;;12.52;;
10479;SDS011;12789;42.610;23.040;2022-09-09T05:53:25;16.65;;;11.65;;
10479;SDS011;12789;42.610;23.040;2022-09-09T05:56:00;19.50;;;10.30;;
10479;SDS011;12789;42.610;23.040;2022-09-09T05:58:28;14.60;;;11.07;;
10479;SDS011;12789;42.610;23.040;2022-09-09T06:01:00;17.17;;;10.95;;
10479;SDS011;12789;42.610;23.040;2022-09-09T06:03:28;25.33;;;11.73;;
10479;SDS011;12789;42.610;23.040;2022-09-09T06:05:58;21.15;;;12.63;;
10479;SDS011;12789;42.610;23.040;2022-09-09T06:08:27;17.40;;;11.13;;
10479;SDS011;12789;42.610;23.040;2022-09-09T06:11:00;19.25;;;11.95;;
10479;SDS011;12789;42.610;23.040;2022-09-09T06:13:28;15.52;;;11.13;;
10479;SDS011;12789;42.610;23.040;2022-09-09T06:15:54;16.50;;;11.52;;
10479;SDS011;12789;42.610;23.040;2022-09-09T06:18:21;12.18;;;10.93;;
10479;SDS011;12789;42.610;23.040;2022-09-09T06:20:55;14.23;;;10.55;;
10479;SDS011;12789;42.610;23.040;2022-09-09T06:23:23;15.77;;;10.63;;
10479;SDS011;12789;42.610;23.040;2022-09-09T06:25:51;13.43;;;9.90;;
10479;SDS011;12789;42.610;23.040;2022-09-09T06:28:26;12.93;;;10.20;;
10479;SDS011;12789;42.610;23.040;2022-09-09T06:30:56;14.52;;;9.60;;
10479;SDS011;12789;42.610;23.040;2022-09-09T06:33:24;15.27;;;9.35;;
10479;SDS011;12789;42.610;23.040;2022-09-09T06:35:53;12.43;;;9.48;;
10479;SDS011;12789;42.610;23.040;2022-09-09T06:38:22;14.82;;;8.90;;
10479;SDS011;12789;42.610;23.040;2022-09-09T06:40:54;10.75;;;8.07;;
10479;SDS011;12789;42.610;23.040;2022-09-09T06:43:23;18.83;;;8.20;;
10479;SDS011;12789;42.610;23.040;2022-09-09T06:45:52;9.88;;;7.80;;
10479;SDS011;12789;42.610;23.040;2022-09-09T06:48:20;12.07;;;8.48;;
10479;SDS011;12789;42.610;23.040;2022-09-09T06:50:47;10.30;;;7.25;;
10479;SDS011;12789;42.610;23.040;2022-09-09T06:53:16;10.98;;;7.20;;
10479;SDS011;12789;42.610;23.040;2022-09-09T06:55:44;16.00;;;7.47;;
10479;SDS011;12789;42.610;23.040;2022-09-09T06:58:13;11.32;;;7.18;;
10479;SDS011;12789;42.610;23.040;2022-09-09T07:00:40;9.95;;;7.03;;
10479;SDS011;12789;42.610;23.040;2022-09-09T07:03:07;7.28;;;6.28;;
10479;SDS011;12789;42.610;23.040;2022-09-09T07:05:36;14.98;;;6.95;;
10479;SDS011;12789;42.610;23.040;2022-09-09T07:08:03;12.30;;;6.32;;
10479;SDS011;12789;42.610;23.040;2022-09-09T07:10:31;8.10;;;6.30;;
10479;SDS011;12789;42.610;23.040;2022-09-09T07:12:59;13.82;;;6.88;;
10479;SDS011;12789;42.610;23.040;2022-09-09T07:15:29;11.20;;;6.55;;
10479;SDS011;12789;42.610;23.040;2022-09-09T07:18:00;26.95;;;6.82;;
10479;SDS011;12789;42.610;23.040;2022-09-09T07:20:27;10.52;;;6.50;;
10479;SDS011;12789;42.610;23.040;2022-09-09T07:22:55;10.57;;;6.20;;
10479;SDS011;12789;42.610;23.040;2022-09-09T07:25:23;10.57;;;6.32;;
10479;SDS011;12789;42.610;23.040;2022-09-09T07:27:51;16.27;;;6.20;;
10479;SDS011;12789;42.610;23.040;2022-09-09T07:30:22;12.02;;;6.25;;
10479;SDS011;12789;42.610;23.040;2022-09-09T07:32:52;10.40;;;6.55;;
10479;SDS011;12789;42.610;23.040;2022-09-09T07:35:18;12.43;;;5.55;;
10479;SDS011;12789;42.610;23.040;2022-09-09T07:37:46;10.18;;;5.07;;
10479;SDS011;12789;42.610;23.040;2022-09-09T07:40:13;12.05;;;5.38;;
10479;SDS011;12789;42.610;23.040;2022-09-09T07:42:40;7.80;;;5.32;;
10479;SDS011;12789;42.610;23.040;2022-09-09T07:45:07;9.27;;;5.20;;
10479;SDS011;12789;42.610;23.040;2022-09-09T07:47:34;8.65;;;5.22;;
10479;SDS011;12789;42.610;23.040;2022-09-09T07:50:03;11.95;;;4.70;;
10479;SDS011;12789;42.610;23.040;2022-09-09T07:52:30;9.10;;;5.13;;
10479;SDS011;12789;42.610;23.040;2022-09-09T07:54:58;9.43;;;5.13;;
10479;SDS011;12789;42.610;23.040;2022-09-09T07:57:25;7.63;;;5.03;;
10479;SDS011;12789;42.610;23.040;2022-09-09T07:59:52;8.15;;;4.82;;
10479;SDS011;12789;42.610;23.040;2022-09-09T08:02:19;5.93;;;4.57;;
10479;SDS011;12789;42.610;23.040;2022-09-09T08:04:46;10.73;;;5.05;;
10479;SDS011;12789;42.610;23.040;2022-09-09T08:07:15;8.68;;;5.20;;
10479;SDS011;12789;42.610;23.040;2022-09-09T08:09:42;7.53;;;4.80;;
10479;SDS011;12789;42.610;23.040;2022-09-09T08:12:09;8.38;;;4.88;;
10479;SDS011;12789;42.610;23.040;2022-09-09T08:14:38;8.73;;;5.03;;
10479;SDS011;12789;42.610;23.040;2022-09-09T08:17:05;8.55;;;5.20;;
10479;SDS011;12789;42.610;23.040;2022-09-09T08:19:32;11.38;;;5.05;;
10479;SDS011;12789;42.610;23.040;2022-09-09T08:22:00;15.52;;;5.10;;
10479;SDS011;12789;42.610;23.040;2022-09-09T08:24:29;10.65;;;5.53;;
10479;SDS011;12789;42.610;23.040;2022-09-09T08:26:56;7.35;;;5.20;;
10479;SDS011;12789;42.610;23.040;2022-09-09T08:29:24;7.95;;;5.10;;
10479;SDS011;12789;42.610;23.040;2022-09-09T08:31:53;9.05;;;4.97;;
10479;SDS011;12789;42.610;23.040;2022-09-09T08:34:22;10.75;;;4.90;;
10479;SDS011;12789;42.610;23.040;2022-09-09T08:36:51;7.97;;;5.03;;
10479;SDS011;12789;42.610;23.040;2022-09-09T08:39:19;8.20;;;5.32;;
10479;SDS011;12789;42.610;23.040;2022-09-09T08:41:52;15.07;;;5.75;;
10479;SDS011;12789;42.610;23.040;2022-09-09T08:44:40;13.75;;;5.35;;
10479;SDS011;12789;42.610;23.040;2022-09-09T08:47:22;6.50;;;4.88;;
10479;SDS011;12789;42.610;23.040;2022-09-09T08:50:00;9.50;;;4.65;;
10479;SDS011;12789;42.610;23.040;2022-09-09T08:52:36;10.65;;;4.30;;
10479;SDS011;12789;42.610;23.040;2022-09-09T08:55:12;8.07;;;4.93;;
10479;SDS011;12789;42.610;23.040;2022-09-09T08:57:49;7.53;;;4.82;;
10479;SDS011;12789;42.610;23.040;2022-09-09T09:00:19;11.95;;;5.25;;
10479;SDS011;12789;42.610;23.040;2022-09-09T09:02:48;8.13;;;4.80;;
10479;SDS011;12789;42.610;23.040;2022-09-09T09:05:26;7.88;;;4.85;;
10479;SDS011;12789;42.610;23.040;2022-09-09T09:07:59;10.80;;;5.13;;
10479;SDS011;12789;42.610;23.040;2022-09-09T09:10:39;14.68;;;5.22;;
10479;SDS011;12789;42.610;23.040;2022-09-09T09:13:16;8.98;;;4.93;;
10479;SDS011;12789;42.610;23.040;2022-09-09T09:15:48;11.77;;;4.80;;
10479;SDS011;12789;42.610;23.040;2022-09-09T09:18:20;8.70;;;4.95;;
10479;SDS011;12789;42.610;23.040;2022-09-09T09:20:50;9.27;;;5.38;;
10479;SDS011;12789;42.610;23.040;2022-09-09T09:23:21;11.25;;;5.25;;
10479;SDS011;12789;42.610;23.040;2022-09-09T09:25:50;14.98;;;5.65;;
10479;SDS011;12789;42.610;23.040;2022-09-09T09:28:24;12.93;;;5.18;;
10479;SDS011;12789;42.610;23.040;2022-09-09T09:30:54;10.13;;;4.78;;
10479;SDS011;12789;42.610;23.040;2022-09-09T09:33:25;9.32;;;5.07;;
10479;SDS011;12789;42.610;23.040;2022-09-09T09:35:57;11.88;;;4.97;;
10479;SDS011;12789;42.610;23.040;2022-09-09T09:38:26;12.23;;;5.30;;
10479;SDS011;12789;42.610;23.040;2022-09-09T09:40:54;11.98;;;4.90;;
10479;SDS011;12789;42.610;23.040;2022-09-09T09:43:26;14.88;;;4.88;;
10479;SDS011;12789;42.610;23.040;2022-09-09T09:45:54;12.30;;;5.65;;
10479;SDS011;12789;42.610;23.040;2022-09-09T09:48:22;9.75;;;5.35;;
10479;SDS011;12789;42.610;23.040;2022-09-09T09:50:50;9.68;;;5.57;;
10479;SDS011;12789;42.610;23.040;2022-09-09T09:53:20;7.53;;;5.28;;
10479;SDS011;12789;42.610;23.040;2022-09-09T09:55:52;8.32;;;5.25;;
10479;SDS011;12789;42.610;23.040;2022-09-09T09:58:21;9.32;;;5.78;;
10479;SDS011;12789;42.610;23.040;2022-09-09T10:00:50;8.50;;;5.25;;
10479;SDS011;12789;42.610;23.040;2022-09-09T10:03:20;6.55;;;4.63;;
10479;SDS011;12789;42.610;23.040;2022-09-09T10:05:49;9.48;;;5.00;;
10479;SDS011;12789;42.610;23.040;2022-09-09T10:08:17;7.65;;;5.10;;
10479;SDS011;12789;42.610;23.040;2022-09-09T10:13:45;16.70;;;5.25;;
10479;SDS011;12789;42.610;23.040;2022-09-09T10:16:25;8.50;;;4.47;;
10479;SDS011;12789;42.610;23.040;2022-09-09T10:19:05;9.70;;;4.57;;
10479;SDS011;12789;42.610;23.040;2022-09-09T10:21:50;7.43;;;4.90;;
10479;SDS011;12789;42.610;23.040;2022-09-09T10:24:33;7.90;;;5.15;;
10479;SDS011;12789;42.610;23.040;2022-09-09T10:27:12;5.95;;;4.60;;
10479;SDS011;12789;42.610;23.040;2022-09-09T10:30:00;5.80;;;4.72;;
10479;SDS011;12789;42.610;23.040;2022-09-09T10:32:37;6.78;;;5.22;;
10479;SDS011;12789;42.610;23.040;2022-09-09T10:35:12;14.00;;;8.02;;
10479;SDS011;12789;42.610;23.040;2022-09-09T10:37:50;7.32;;;6.35;;
10479;SDS011;12789;42.610;23.040;2022-09-09T10:40:31;13.13;;;8.93;;
10479;SDS011;12789;42.610;23.040;2022-09-09T10:43:01;10.57;;;6.40;;
10479;SDS011;12789;42.610;23.040;2022-09-09T10:45:39;9.60;;;5.47;;
10479;SDS011;12789;42.610;23.040;2022-09-09T10:48:26;11.07;;;5.65;;
10479;SDS011;12789;42.610;23.040;2022-09-09T10:53:53;7.45;;;5.78;;
10479;SDS011;12789;42.610;23.040;2022-09-09T10:56:40;10.70;;;6.35;;
10479;SDS011;12789;42.610;23.040;2022-09-09T10:59:11;6.80;;;4.90;;
10479;SDS011;12789;42.610;23.040;2022-09-09T11:01:43;5.80;;;5.18;;
10479;SDS011;12789;42.610;23.040;2022-09-09T11:04:17;10.93;;;5.82;;
10479;SDS011;12789;42.610;23.040;2022-09-09T11:06:49;7.85;;;5.25;;
10479;SDS011;12789;42.610;23.040;2022-09-09T11:09:21;10.30;;;5.50;;
10479;SDS011;12789;42.610;23.040;2022-09-09T11:11:53;8.00;;;5.20;;
10479;SDS011;12789;42.610;23.040;2022-09-09T11:14:22;7.63;;;5.03;;
10479;SDS011;12789;42.610;23.040;2022-09-09T11:16:56;7.32;;;5.30;;
10479;SDS011;12789;42.610;23.040;2022-09-09T11:19:29;7.70;;;5.72;;
10479;SDS011;12789;42.610;23.040;2022-09-09T11:22:00;8.68;;;5.43;;
10479;SDS011;12789;42.610;23.040;2022-09-09T11:24:33;8.13;;;5.40;;
10479;SDS011;12789;42.610;23.040;2022-09-09T11:27:05;8.00;;;5.50;;
10479;SDS011;12789;42.610;23.040;2022-09-09T11:29:45;7.00;;;5.47;;
10479;SDS011;12789;42.610;23.040;2022-09-09T11:32:44;6.03;;;5.47;;
10479;SDS011;12789;42.610;23.040;2022-09-09T11:35:37;5.82;;;5.32;;
10479;SDS011;12789;42.610;23.040;2022-09-09T11:38:15;5.93;;;5.32;;
10479;SDS011;12789;42.610;23.040;2022-09-09T11:40:45;7.60;;;5.63;;
10479;SDS011;12789;42.610;23.040;2022-09-09T11:43:13;5.78;;;5.28;;
10479;SDS011;12789;42.610;23.040;2022-09-09T11:45:49;12.02;;;5.88;;
10479;SDS011;12789;42.610;23.040;2022-09-09T11:48:24;6.72;;;4.90;;
10479;SDS011;12789;42.610;23.040;2022-09-09T11:51:00;10.20;;;5.03;;
10479;SDS011;12789;42.610;23.040;2022-09-09T11:53:30;7.43;;;5.05;;
10479;SDS011;12789;42.610;23.040;2022-09-09T11:58:55;9.65;;;4.80;;
10479;SDS011;12789;42.610;23.040;2022-09-09T12:01:38;8.15;;;4.90;;
10479;SDS011;12789;42.610;23.040;2022-09-09T12:07:00;5.25;;;4.75;;
10479;SDS011;12789;42.610;23.040;2022-09-09T12:09:31;5.43;;;4.63;;
10479;SDS011;12789;42.610;23.040;2022-09-09T12:12:28;4.97;;;4.57;;
10479;SDS011;12789;42.610;23.040;2022-09-09T12:14:58;6.65;;;4.63;;
10479;SDS011;12789;42.610;23.040;2022-09-09T12:17:28;6.20;;;4.93;;
10479;SDS011;12789;42.610;23.040;2022-09-09T12:20:00;6.80;;;4.85;;
10479;SDS011;12789;42.610;23.040;2022-09-09T12:22:35;8.95;;;4.90;;
10479;SDS011;12789;42.610;23.040;2022-09-09T12:25:12;7.53;;;4.90;;
10479;SDS011;12789;42.610;23.040;2022-09-09T12:27:53;6.22;;;5.22;;
10479;SDS011;12789;42.610;23.040;2022-09-09T12:30:29;5.47;;;4.97;;
10479;SDS011;12789;42.610;23.040;2022-09-09T12:33:01;8.45;;;5.25;;
10479;SDS011;12789;42.610;23.040;2022-09-09T12:35:33;6.50;;;5.45;;
10479;SDS011;12789;42.610;23.040;2022-09-09T12:38:05;8.50;;;5.20;;
10479;SDS011;12789;42.610;23.040;2022-09-09T12:40:36;7.43;;;5.43;;
10479;SDS011;12789;42.610;23.040;2022-09-09T12:43:15;9.07;;;4.93;;
10479;SDS011;12789;42.610;23.040;2022-09-09T12:45:43;9.40;;;5.47;;
10479;SDS011;12789;42.610;23.040;2022-09-09T12:48:11;7.50;;;5.57;;
10479;SDS011;12789;42.610;23.040;2022-09-09T12:50:43;9.60;;;5.35;;
10479;SDS011;12789;42.610;23.040;2022-09-09T12:53:15;5.80;;;5.20;;
10479;SDS011;12789;42.610;23.040;2022-09-09T12:55:49;6.90;;;4.78;;
10479;SDS011;12789;42.610;23.040;2022-09-09T12:58:18;7.63;;;4.97;;
10479;SDS011;12789;42.610;23.040;2022-09-09T13:00:48;4.88;;;4.38;;
10479;SDS011;12789;42.610;23.040;2022-09-09T13:03:17;7.78;;;4.63;;
10479;SDS011;12789;42.610;23.040;2022-09-09T13:05:47;8.10;;;4.80;;
10479;SDS011;12789;42.610;23.040;2022-09-09T13:08:20;9.00;;;4.50;;
10479;SDS011;12789;42.610;23.040;2022-09-09T13:10:48;5.00;;;4.47;;
10479;SDS011;12789;42.610;23.040;2022-09-09T13:13:21;6.93;;;4.18;;
10479;SDS011;12789;42.610;23.040;2022-09-09T13:15:51;6.80;;;4.50;;
10479;SDS011;12789;42.610;23.040;2022-09-09T13:18:21;6.38;;;4.45;;
10479;SDS011;12789;42.610;23.040;2022-09-09T13:20:50;6.07;;;4.55;;
10479;SDS011;12789;42.610;23.040;2022-09-09T13:23:18;8.85;;;4.60;;
10479;SDS011;12789;42.610;23.040;2022-09-09T13:25:54;11.25;;;5.47;;
10479;SDS011;12789;42.610;23.040;2022-09-09T13:28:23;5.00;;;4.30;;
10479;SDS011;12789;42.610;23.040;2022-09-09T13:30:57;9.85;;;4.90;;
10479;SDS011;12789;42.610;23.040;2022-09-09T13:33:29;8.60;;;4.68;;
10479;SDS011;12789;42.610;23.040;2022-09-09T13:35:58;4.68;;;4.22;;
10479;SDS011;12789;42.610;23.040;2022-09-09T13:38:29;7.63;;;4.82;;
10479;SDS011;12789;42.610;23.040;2022-09-09T13:40:59;6.75;;;4.88;;
10479;SDS011;12789;42.610;23.040;2022-09-09T13:43:29;8.90;;;5.10;;
10479;SDS011;12789;42.610;23.040;2022-09-09T13:45:59;7.05;;;4.82;;
10479;SDS011;12789;42.610;23.040;2022-09-09T13:48:27;9.18;;;4.50;;
10479;SDS011;12789;42.610;23.040;2022-09-09T13:50:55;8.40;;;4.22;;
10479;SDS011;12789;42.610;23.040;2022-09-09T13:53:23;8.20;;;4.97;;
10479;SDS011;12789;42.610;23.040;2022-09-09T13:55:51;5.65;;;4.40;;
10479;SDS011;12789;42.610;23.040;2022-09-09T13:58:19;8.85;;;4.05;;
10479;SDS011;12789;42.610;23.040;2022-09-09T14:00:48;11.38;;;4.38;;
10479;SDS011;12789;42.610;23.040;2022-09-09T14:03:15;5.57;;;4.40;;
10479;SDS011;12789;42.610;23.040;2022-09-09T14:05:42;7.10;;;4.70;;
10479;SDS011;12789;42.610;23.040;2022-09-09T14:08:12;6.80;;;3.97;;
10479;SDS011;12789;42.610;23.040;2022-09-09T14:10:45;7.93;;;6.15;;
10479;SDS011;12789;42.610;23.040;2022-09-09T14:13:14;7.78;;;4.70;;
10479;SDS011;12789;42.610;23.040;2022-09-09T14:15:41;12.90;;;4.80;;
10479;SDS011;12789;42.610;23.040;2022-09-09T14:18:09;11.75;;;4.78;;
10479;SDS011;12789;42.610;23.040;2022-09-09T14:20:37;4.72;;;4.10;;
10479;SDS011;12789;42.610;23.040;2022-09-09T14:23:04;7.55;;;4.18;;
10479;SDS011;12789;42.610;23.040;2022-09-09T14:25:32;7.57;;;4.45;;
10479;SDS011;12789;42.610;23.040;2022-09-09T14:28:00;4.50;;;4.03;;
10479;SDS011;12789;42.610;23.040;2022-09-09T14:30:29;4.82;;;3.80;;
10479;SDS011;12789;42.610;23.040;2022-09-09T14:32:56;7.25;;;3.40;;
10479;SDS011;12789;42.610;23.040;2022-09-09T14:35:24;7.88;;;3.83;;
10479;SDS011;12789;42.610;23.040;2022-09-09T14:37:51;9.65;;;3.97;;
10479;SDS011;12789;42.610;23.040;2022-09-09T14:40:18;6.72;;;3.90;;
10479;SDS011;12789;42.610;23.040;2022-09-09T14:42:45;7.30;;;3.88;;
10479;SDS011;12789;42.610;23.040;2022-09-09T14:45:12;6.40;;;3.72;;
10479;SDS011;12789;42.610;23.040;2022-09-09T14:47:41;6.10;;;4.00;;
10479;SDS011;12789;42.610;23.040;2022-09-09T14:50:08;5.68;;;3.63;;
10479;SDS011;12789;42.610;23.040;2022-09-09T14:52:37;5.95;;;3.92;;
10479;SDS011;12789;42.610;23.040;2022-09-09T14:55:04;8.52;;;3.97;;